createdAt,value
2022-08-05T00:02:11.327Z,94637.16
2022-08-05T00:04:40.284Z,94643.09
2022-08-05T00:07:27.019Z,94638.28
2022-08-05T00:09:54.616Z,94634.63
2022-08-05T00:12:21.543Z,94628.25
2022-08-05T00:14:51.704Z,94628.91
2022-08-05T00:17:20.213Z,94625.19
2022-08-05T00:20:02.444Z,94623.81
2022-08-05T00:22:30.179Z,94624.16
2022-08-05T00:24:57.898Z,94621.00
2022-08-05T00:27:35.806Z,94622.91
2022-08-05T00:30:11.409Z,94618.00
2022-08-05T00:32:38.141Z,94619.44
2022-08-05T00:35:08.451Z,94613.72
2022-08-05T00:37:52.388Z,94605.78
2022-08-05T00:40:28.252Z,94614.84
2022-08-05T00:42:56.196Z,94610.09
2022-08-05T00:45:25.008Z,94621.06
2022-08-05T00:48:06.996Z,94610.31
2022-08-05T00:50:34.934Z,94612.34
2022-08-05T00:53:02.659Z,94614.34
2022-08-05T00:55:42.455Z,94613.03
2022-08-05T00:58:11.358Z,94617.84
2022-08-05T01:00:40.272Z,94613.25
2022-08-05T01:03:09.294Z,94619.19
2022-08-05T01:05:36.301Z,94620.66
2022-08-05T01:08:42.277Z,94616.72
2022-08-05T01:10:54.997Z,94610.56
2022-08-05T01:13:58.982Z,94623.34
2022-08-05T01:16:26.223Z,94621.44
2022-08-05T01:19:00.795Z,94626.69
2022-08-05T01:21:55.859Z,94627.13
2022-08-05T01:24:41.283Z,94624.72
2022-08-05T01:27:23.821Z,94624.38
2022-08-05T01:29:56.488Z,94617.94
2022-08-05T01:32:27.872Z,94619.41
2022-08-05T01:34:58.674Z,94620.94
2022-08-05T01:37:32.924Z,94626.69
2022-08-05T01:40:07.357Z,94627.16
2022-08-05T01:42:36.487Z,94622.31
2022-08-05T01:45:08.376Z,94625.81
2022-08-05T01:47:39.568Z,94629.13
2022-08-05T01:50:15.322Z,94630.91
2022-08-05T01:52:50.010Z,94628.75
2022-08-05T01:55:20.471Z,94625.47
2022-08-05T01:58:09.880Z,94631.97
2022-08-05T02:00:39.636Z,94630.06
2022-08-05T02:03:29.011Z,94634.78
2022-08-05T02:06:03.384Z,94634.13
2022-08-05T02:08:54.931Z,94631.22
2022-08-05T02:11:33.503Z,94633.13
2022-08-05T02:14:05.574Z,94638.41
2022-08-05T02:16:44.706Z,94638.59
2022-08-05T02:19:18.861Z,94628.34
2022-08-05T02:21:52.587Z,94632.75
2022-08-05T02:24:23.228Z,94643.78
2022-08-05T02:26:53.792Z,94636.75
2022-08-05T02:29:24.230Z,94640.50
2022-08-05T02:32:23.888Z,94638.06
2022-08-05T02:34:57.739Z,94637.44
2022-08-05T02:37:25.140Z,94633.94
2022-08-05T02:39:53.767Z,94628.72
2022-08-05T02:42:25.748Z,94630.06
2022-08-05T02:44:55.865Z,94639.75
2022-08-05T02:47:25.827Z,94636.50
2022-08-05T02:50:18.044Z,94635.13
2022-08-05T02:52:46.745Z,94636.09
2022-08-05T02:55:14.334Z,94634.53
2022-08-05T02:58:10.788Z,94636.56
2022-08-05T03:00:35.017Z,94632.44
2022-08-05T03:03:10.344Z,94632.28
2022-08-05T03:06:53.942Z,94637.53
2022-08-05T03:08:27.039Z,94627.75
2022-08-05T03:11:02.350Z,94634.56
2022-08-05T03:13:51.547Z,94632.44
2022-08-05T03:16:29.787Z,94627.09
2022-08-05T03:19:00.165Z,94629.19
2022-08-05T03:21:28.677Z,94628.47
2022-08-05T03:23:56.893Z,94638.13
2022-08-05T03:26:31.516Z,94632.97
2022-08-05T03:28:59.630Z,94632.22
2022-08-05T03:31:56.009Z,94631.91
2022-08-05T03:34:14.831Z,94626.84
2022-08-05T03:36:41.714Z,94629.53
2022-08-05T03:39:12.991Z,94628.41
2022-08-05T03:41:47.062Z,94622.72
2022-08-05T03:44:19.877Z,94623.19
2022-08-05T03:46:46.898Z,94621.94
2022-08-05T03:49:17.183Z,94622.59
2022-08-05T03:52:38.456Z,94624.47
2022-08-05T03:55:52.226Z,94630.00
2022-08-05T03:57:42.308Z,94640.84
2022-08-05T04:00:15.674Z,94659.44
2022-08-05T04:02:57.685Z,94654.31
2022-08-05T04:05:33.215Z,94655.06
2022-08-05T04:08:02.170Z,94657.25
2022-08-05T04:10:37.162Z,94667.47
2022-08-05T04:13:06.207Z,94667.16
2022-08-05T04:15:36.310Z,94662.56
2022-08-05T04:18:07.313Z,94664.91
2022-08-05T04:20:37.553Z,94667.78
2022-08-05T04:23:04.509Z,94668.00
2022-08-05T04:25:57.496Z,94671.00
2022-08-05T04:28:19.266Z,94672.31
2022-08-05T04:30:46.452Z,94670.59
2022-08-05T04:33:15.920Z,94673.94
2022-08-05T04:36:15.776Z,94673.94
2022-08-05T04:38:39.199Z,94677.25
2022-08-05T04:41:07.261Z,94674.88
2022-08-05T04:43:34.327Z,94675.66
2022-08-05T04:46:04.533Z,94678.03
2022-08-05T04:48:32.243Z,94666.31
2022-08-05T04:51:02.717Z,94670.25
2022-08-05T04:53:38.637Z,94677.69
2022-08-05T04:56:32.958Z,94683.31
2022-08-05T04:58:53.401Z,94674.22
2022-08-05T05:01:33.666Z,94674.63
2022-08-05T05:04:06.762Z,94674.03
2022-08-05T05:06:40.040Z,94675.56
2022-08-05T05:09:14.145Z,94669.03
2022-08-05T05:11:53.276Z,94676.69
2022-08-05T05:14:27.990Z,94674.38
2022-08-05T05:16:59.117Z,94670.81
2022-08-05T05:19:27.424Z,94678.47
2022-08-05T05:22:24.239Z,94674.25
2022-08-05T05:24:56.916Z,94676.53
2022-08-05T05:27:25.307Z,94678.47
2022-08-05T05:30:15.508Z,94679.94
2022-08-05T05:32:55.482Z,94680.97
2022-08-05T05:35:22.951Z,94680.88
2022-08-05T05:38:00.140Z,94682.44
2022-08-05T05:40:32.021Z,94690.84
2022-08-05T05:42:59.640Z,94690.66
2022-08-05T05:45:29.081Z,94687.16
2022-08-05T05:48:05.327Z,94697.50
2022-08-05T05:50:44.114Z,94701.66
2022-08-05T05:53:22.032Z,94697.69
2022-08-05T05:55:52.511Z,94699.56
2022-08-05T05:58:30.380Z,94695.03
2022-08-05T06:01:12.454Z,94692.78
2022-08-05T06:04:00.732Z,94694.06
2022-08-05T06:06:27.942Z,94700.88
2022-08-05T06:09:03.896Z,94705.25
2022-08-05T06:11:30.953Z,94703.75
2022-08-05T06:13:58.141Z,94708.97
2022-08-05T06:16:32.558Z,94710.38
2022-08-05T06:19:05.803Z,94716.47
2022-08-05T06:21:35.927Z,94710.88
2022-08-05T06:24:12.345Z,94704.94
2022-08-05T06:26:39.979Z,94715.69
2022-08-05T06:29:43.007Z,94716.69
2022-08-05T06:32:50.778Z,94719.19
2022-08-05T06:36:02.913Z,94717.72
2022-08-05T06:38:11.085Z,94724.06
2022-08-05T06:40:44.482Z,94727.38
2022-08-05T06:43:58.516Z,94730.19
2022-08-05T06:46:06.528Z,94738.81
2022-08-05T06:48:56.318Z,94740.91
2022-08-05T06:51:30.113Z,94737.94
2022-08-05T06:53:58.758Z,94739.22
2022-08-05T06:56:27.038Z,94737.44
2022-08-05T06:58:54.037Z,94732.25
2022-08-05T07:01:21.245Z,94745.56
2022-08-05T07:03:51.032Z,94738.78
2022-08-05T07:06:20.612Z,94745.25
2022-08-05T07:08:52.076Z,94745.22
2022-08-05T07:11:22.192Z,94747.78
2022-08-05T07:14:19.975Z,94747.22
2022-08-05T07:18:01.693Z,94750.59
2022-08-05T07:22:30.230Z,94752.47
2022-08-05T07:25:23.831Z,94761.00
2022-08-05T07:27:57.542Z,94761.41
2022-08-05T07:30:32.799Z,94762.22
2022-08-05T07:33:01.010Z,94769.56
2022-08-05T07:36:04.525Z,94779.69
2022-08-05T07:38:32.780Z,94784.00
2022-08-05T07:41:16.492Z,94790.19
2022-08-05T07:43:49.531Z,94794.41
2022-08-05T07:46:25.156Z,94806.06
2022-08-05T07:49:03.126Z,94798.28
2022-08-05T07:51:36.739Z,94807.56
2022-08-05T07:54:05.439Z,94815.69
2022-08-05T07:57:00.161Z,94820.34
2022-08-05T07:59:21.905Z,94828.84
2022-08-05T08:01:58.040Z,94834.25
2022-08-05T08:04:38.012Z,94824.56
2022-08-05T08:07:07.085Z,94828.44
2022-08-05T08:09:34.332Z,94834.69
2022-08-05T08:12:08.309Z,94837.94
2022-08-05T08:14:41.772Z,94847.09
2022-08-05T08:17:15.846Z,94858.22
2022-08-05T08:20:21.495Z,94858.72
2022-08-05T08:22:33.434Z,94855.38
2022-08-05T08:25:02.802Z,94861.03
2022-08-05T08:27:37.981Z,94858.03
2022-08-05T08:30:29.858Z,94863.28
2022-08-05T08:33:02.529Z,94873.59
2022-08-05T08:35:34.858Z,94871.78
2022-08-05T08:38:16.278Z,94874.63
2022-08-05T08:40:51.440Z,94882.13
2022-08-05T08:44:56.440Z,94893.44
2022-08-05T08:46:10.087Z,94902.72
2022-08-05T08:49:07.777Z,94903.28
2022-08-05T08:52:02.873Z,94911.19
2022-08-05T08:54:30.196Z,94917.50
2022-08-05T08:56:58.906Z,94922.53
2022-08-05T08:59:27.597Z,94917.72
2022-08-05T09:02:01.070Z,94919.97
2022-08-05T09:04:30.304Z,94924.53
2022-08-05T09:06:57.748Z,94927.19
2022-08-05T09:09:34.635Z,94935.75
2022-08-05T09:12:19.875Z,94934.41
2022-08-05T09:14:56.576Z,94931.44
2022-08-05T09:17:43.158Z,94939.00
2022-08-05T09:20:36.179Z,94932.19
2022-08-05T09:23:18.821Z,94934.81
2022-08-05T09:26:07.850Z,94944.34
2022-08-05T09:28:38.211Z,94947.66
2022-08-05T09:31:43.748Z,94943.13
2022-08-05T09:34:01.031Z,94941.78
2022-08-05T09:36:54.527Z,94946.66
2022-08-05T09:39:41.990Z,94942.25
2022-08-05T09:42:17.393Z,94957.19
2022-08-05T09:44:51.564Z,94941.06
2022-08-05T09:47:20.847Z,94942.84
2022-08-05T09:50:01.281Z,94951.50
2022-08-05T09:52:31.556Z,94953.03
2022-08-05T09:55:06.361Z,94952.97
2022-08-05T09:57:49.430Z,94949.13
2022-08-05T10:00:26.435Z,94951.88
2022-08-05T10:02:54.864Z,94952.28
2022-08-05T10:05:29.230Z,94950.84
2022-08-05T10:08:34.583Z,94954.81
2022-08-05T10:10:54.288Z,94951.38
2022-08-05T10:13:45.713Z,94957.19
2022-08-05T10:16:30.928Z,94962.28
2022-08-05T10:18:59.376Z,94959.59
2022-08-05T10:21:27.554Z,94955.75
2022-08-05T10:24:07.551Z,94957.38
2022-08-05T10:26:37.831Z,94951.97
2022-08-05T10:29:23.728Z,94956.69
2022-08-05T10:32:59.913Z,94949.72
2022-08-05T10:34:57.542Z,94947.44
2022-08-05T10:37:40.302Z,94946.28
2022-08-05T10:40:20.051Z,94942.38
2022-08-05T10:43:02.672Z,94945.88
2022-08-05T10:45:40.261Z,94945.53
2022-08-05T10:48:52.762Z,94930.72
2022-08-05T10:51:28.500Z,94934.66
2022-08-05T10:54:00.747Z,94928.44
2022-08-05T10:56:30.274Z,94931.56
2022-08-05T10:59:12.830Z,94933.91
2022-08-05T11:02:14.179Z,94930.41
2022-08-05T11:04:45.106Z,94929.22
2022-08-05T11:07:15.422Z,94924.53
2022-08-05T11:09:46.701Z,94932.38
2022-08-05T11:12:45.416Z,94926.50
2022-08-05T11:15:21.147Z,94924.94
2022-08-05T11:18:00.348Z,94916.72
2022-08-05T11:20:46.210Z,94918.66
2022-08-05T11:23:33.657Z,94915.19
2022-08-05T11:26:28.207Z,94921.06
2022-08-05T11:29:12.311Z,94916.38
2022-08-05T11:31:56.231Z,94917.53
2022-08-05T11:34:47.459Z,94907.41
2022-08-05T11:38:28.681Z,94902.31
2022-08-05T11:41:14.032Z,94901.88
2022-08-05T11:44:06.214Z,94911.59
2022-08-05T11:46:36.099Z,94913.88
2022-08-05T11:49:13.370Z,94914.59
2022-08-05T11:51:49.541Z,94910.66
2022-08-05T11:54:33.355Z,94910.25
2022-08-05T11:57:08.234Z,94909.41
2022-08-05T11:59:51.314Z,94916.78
2022-08-05T12:02:29.734Z,94918.69
2022-08-05T12:05:01.487Z,94921.34
2022-08-05T12:08:03.301Z,94922.47
2022-08-05T12:10:43.589Z,94917.38
2022-08-05T12:13:15.482Z,94913.50
2022-08-05T12:15:43.987Z,94906.50
2022-08-05T12:18:12.174Z,94891.72
2022-08-05T12:20:39.431Z,94889.34
2022-08-05T12:23:09.937Z,94883.50
2022-08-05T12:25:49.766Z,94869.09
2022-08-05T12:28:30.957Z,94872.22
2022-08-05T12:31:02.110Z,94871.03
2022-08-05T12:33:36.606Z,94874.91
2022-08-05T12:36:08.627Z,94865.16
2022-08-05T12:38:41.556Z,94857.78
2022-08-05T12:41:13.499Z,94851.53
2022-08-05T12:43:55.166Z,94851.94
2022-08-05T12:46:28.971Z,94863.22
2022-08-05T12:49:13.210Z,94864.41
2022-08-05T12:52:10.672Z,94868.72
2022-08-05T12:54:35.712Z,94871.44
2022-08-05T12:57:09.723Z,94859.78
2022-08-05T12:59:46.723Z,94858.63
2022-08-05T13:02:32.010Z,94861.72
2022-08-05T13:04:58.916Z,94864.50
2022-08-05T13:07:55.021Z,94859.06
2022-08-05T13:10:20.234Z,94848.16
2022-08-05T13:12:57.175Z,94848.16
2022-08-05T13:15:35.843Z,94846.59
2022-08-05T13:18:09.166Z,94845.81
2022-08-05T13:20:40.540Z,94842.31
2022-08-05T13:23:07.641Z,94849.31
2022-08-05T13:25:52.267Z,94843.06
2022-08-05T13:28:22.598Z,94831.78
2022-08-05T13:30:53.199Z,94824.41
2022-08-05T13:34:22.241Z,94824.03
2022-08-05T13:36:09.732Z,94819.75
2022-08-05T13:38:36.537Z,94812.00
2022-08-05T13:41:10.866Z,94808.53
2022-08-05T13:43:44.466Z,94809.38
2022-08-05T13:46:13.003Z,94817.97
2022-08-05T13:48:57.439Z,94820.34
2022-08-05T13:51:29.775Z,94817.63
2022-08-05T13:54:11.947Z,94816.06
2022-08-05T13:56:45.085Z,94803.19
2022-08-05T13:59:27.226Z,94809.44
2022-08-05T14:01:56.559Z,94793.44
2022-08-05T14:04:49.625Z,94795.41
2022-08-05T14:08:00.327Z,94781.75
2022-08-05T14:10:19.074Z,94785.28
2022-08-05T14:12:57.221Z,94778.63
2022-08-05T14:16:08.192Z,94777.84
2022-08-05T14:18:15.151Z,94765.75
2022-08-05T14:20:47.255Z,94768.50
2022-08-05T14:23:14.761Z,94757.19
2022-08-05T14:25:53.989Z,94755.63
2022-08-05T14:28:26.822Z,94750.97
2022-08-05T14:30:54.352Z,94749.38
2022-08-05T14:33:22.632Z,94730.28
2022-08-05T14:35:51.826Z,94733.41
2022-08-05T14:38:31.713Z,94724.06
2022-08-05T14:41:00.513Z,94732.25
2022-08-05T14:43:59.272Z,94724.84
2022-08-05T14:46:15.525Z,94725.22
2022-08-05T14:48:42.371Z,94721.72
2022-08-05T14:51:09.553Z,94733.03
2022-08-05T14:53:44.107Z,94731.47
2022-08-05T14:56:11.520Z,94725.97
2022-08-05T14:58:47.813Z,94737.69
2022-08-05T15:01:24.496Z,94739.25
2022-08-05T15:04:11.374Z,94744.28
2022-08-05T15:06:38.370Z,94749.34
2022-08-05T15:09:07.405Z,94749.38
2022-08-05T15:11:51.751Z,94750.94
2022-08-05T15:14:34.854Z,94762.22
2022-08-05T15:17:04.600Z,94767.75
2022-08-05T15:19:31.638Z,94760.34
2022-08-05T15:21:59.935Z,94751.75
2022-08-05T15:24:27.473Z,94751.75
2022-08-05T15:26:55.984Z,94750.59
2022-08-05T15:29:29.749Z,94745.91
2022-08-05T15:31:57.433Z,94735.38
2022-08-05T15:34:32.307Z,94743.13
2022-08-05T15:37:03.492Z,94740.81
2022-08-05T15:41:00.016Z,94740.00
2022-08-05T15:42:50.035Z,94747.03
2022-08-05T15:45:11.360Z,94747.03
2022-08-05T15:47:38.607Z,94748.59
2022-08-05T15:50:07.251Z,94750.94
2022-08-05T15:52:53.738Z,94752.88
2022-08-05T15:55:24.533Z,94747.03
2022-08-05T15:57:53.671Z,94751.72
2022-08-05T16:00:32.514Z,94755.22
2022-08-05T16:03:11.970Z,94742.78
2022-08-05T16:05:41.736Z,94736.13
2022-08-05T16:08:11.436Z,94733.78
2022-08-05T16:10:42.915Z,94738.09
2022-08-05T16:13:10.036Z,94738.47
2022-08-05T16:15:39.232Z,94731.44
2022-08-05T16:18:09.059Z,94731.44
2022-08-05T16:20:36.105Z,94734.19
2022-08-05T16:23:03.693Z,94731.06
2022-08-05T16:25:33.879Z,94729.88
2022-08-05T16:28:06.079Z,94731.84
2022-08-05T16:30:34.264Z,94737.28
2022-08-05T16:33:04.554Z,94732.22
2022-08-05T16:35:32.375Z,94730.66
2022-08-05T16:38:03.708Z,94737.28
2022-08-05T16:40:47.734Z,94754.03
2022-08-05T16:43:25.342Z,94759.06
2022-08-05T16:46:04.177Z,94760.19
2022-08-05T16:48:36.948Z,94757.47
2022-08-05T16:51:09.082Z,94760.56
2022-08-05T16:54:05.179Z,94759.81
2022-08-05T16:56:25.635Z,94761.72
2022-08-05T16:58:54.932Z,94753.16
2022-08-05T17:01:22.169Z,94755.88
2022-08-05T17:03:52.410Z,94758.19
2022-08-05T17:06:19.747Z,94754.66
2022-08-05T17:08:52.228Z,94764.34
2022-08-05T17:11:23.711Z,94766.31
2022-08-05T17:13:54.683Z,94766.25
2022-08-05T17:16:36.208Z,94767.06
2022-08-05T17:19:07.286Z,94768.19
2022-08-05T17:21:36.327Z,94768.59
2022-08-05T17:24:19.899Z,94760.78
2022-08-05T17:26:50.952Z,94760.78
2022-08-05T17:29:22.485Z,94770.09
2022-08-05T17:31:59.699Z,94772.03
2022-08-05T17:34:29.480Z,94771.63
2022-08-05T17:36:56.997Z,94772.81
2022-08-05T17:39:33.218Z,94775.13
2022-08-05T17:42:18.568Z,94777.03
2022-08-05T17:44:50.526Z,94778.16
2022-08-05T17:47:21.741Z,94774.25
2022-08-05T17:49:59.984Z,94780.75
2022-08-05T17:52:31.611Z,94780.59
2022-08-05T17:54:58.295Z,94780.09
2022-08-05T17:57:25.154Z,94785.88
2022-08-05T18:00:04.702Z,94787.75
2022-08-05T18:02:32.601Z,94797.03
2022-08-05T18:05:06.368Z,94796.19
2022-08-05T18:07:41.994Z,94793.03
2022-08-05T18:10:14.239Z,94805.41
2022-08-05T18:12:47.594Z,94806.84
2022-08-05T18:15:14.641Z,94806.31
2022-08-05T18:18:01.554Z,94822.13
2022-08-05T18:20:31.530Z,94822.03
2022-08-05T18:23:08.720Z,94830.19
2022-08-05T18:25:39.371Z,94841.06
2022-08-05T18:28:06.936Z,94840.28
2022-08-05T18:30:33.676Z,94838.69
2022-08-05T18:33:01.047Z,94837.78
2022-08-05T18:36:00.609Z,94853.19
2022-08-05T18:38:25.963Z,94858.25
2022-08-05T18:41:55.147Z,94854.88
2022-08-05T18:43:42.768Z,94849.00
2022-08-05T18:46:14.988Z,94867.06
2022-08-05T18:48:42.148Z,94877.75
2022-08-05T18:52:05.401Z,94877.25
2022-08-05T18:54:15.725Z,94879.47
2022-08-05T18:56:51.174Z,94882.59
2022-08-05T18:59:42.873Z,94867.00
2022-08-05T19:02:11.370Z,94876.44
2022-08-05T19:05:02.641Z,94880.25
2022-08-05T19:07:46.012Z,94888.41
2022-08-05T19:10:13.258Z,94896.72
2022-08-05T19:12:40.441Z,94895.69
2022-08-05T19:15:24.956Z,94893.25
2022-08-05T19:18:09.786Z,94892.81
2022-08-05T19:20:41.322Z,94893.16
2022-08-05T19:24:06.252Z,94888.13
2022-08-05T19:26:01.795Z,94883.69
2022-08-05T19:28:29.938Z,94890.16
2022-08-05T19:30:57.996Z,94892.69
2022-08-05T19:33:34.071Z,94891.59
2022-08-05T19:36:03.131Z,94888.09
2022-08-05T19:38:35.746Z,94886.81
2022-08-05T19:41:02.990Z,94889.41
2022-08-05T19:44:06.699Z,94894.56
2022-08-05T19:46:29.550Z,94904.41
2022-08-05T19:48:57.981Z,94898.94
2022-08-05T19:52:08.589Z,94900.94
2022-08-05T19:54:26.844Z,94898.81
2022-08-05T19:56:58.464Z,94896.28
2022-08-05T20:00:01.230Z,94891.44
2022-08-05T20:02:12.882Z,94894.75
2022-08-05T20:04:43.149Z,94901.97
2022-08-05T20:07:13.453Z,94904.66
2022-08-05T20:09:54.567Z,94898.97
2022-08-05T20:12:21.935Z,94904.28
2022-08-05T20:14:52.479Z,94901.94
2022-08-05T20:17:19.582Z,94921.28
2022-08-05T20:19:50.507Z,94921.75
2022-08-05T20:22:17.212Z,94920.88
2022-08-05T20:24:48.659Z,94913.97
2022-08-05T20:27:15.929Z,94911.84
2022-08-05T20:29:42.804Z,94918.69
2022-08-05T20:32:25.281Z,94924.63
2022-08-05T20:34:52.183Z,94944.97
2022-08-05T20:38:05.519Z,94956.69
2022-08-05T20:40:12.445Z,94975.22
2022-08-05T20:42:39.952Z,95022.94
2022-08-05T20:45:10.723Z,95038.34
2022-08-05T20:47:40.053Z,95050.81
2022-08-05T20:50:08.664Z,95037.91
2022-08-05T20:52:39.165Z,95054.75
2022-08-05T20:55:56.801Z,95071.66
2022-08-05T20:57:57.145Z,95103.38
2022-08-05T21:00:41.591Z,95122.16
2022-08-05T21:03:10.965Z,95145.31
2022-08-05T21:05:53.552Z,95155.53
2022-08-05T21:08:26.670Z,95156.75
2022-08-05T21:11:01.301Z,95170.44
2022-08-05T21:13:56.479Z,95181.31
2022-08-05T21:16:29.849Z,95188.34
2022-08-05T21:19:01.128Z,95213.13
2022-08-05T21:21:44.589Z,95212.16
2022-08-05T21:24:15.893Z,95223.06
2022-08-05T21:26:50.575Z,95234.88
2022-08-05T21:29:23.480Z,95252.22
2022-08-05T21:31:53.602Z,95258.94
2022-08-05T21:34:20.926Z,95270.53
2022-08-05T21:36:49.280Z,95270.75
2022-08-05T21:39:16.792Z,95266.00
2022-08-05T21:41:52.787Z,95270.78
2022-08-05T21:44:28.351Z,95280.59
2022-08-05T21:46:55.637Z,95276.81
2022-08-05T21:49:48.587Z,95271.88
2022-08-05T21:52:21.759Z,95260.03
2022-08-05T21:54:55.197Z,95249.59
2022-08-05T21:57:32.679Z,95246.25
2022-08-05T22:00:11.191Z,95249.41
2022-08-05T22:02:42.641Z,95250.69
2022-08-05T22:05:10.462Z,95250.81
2022-08-05T22:07:39.909Z,95258.75
2022-08-05T22:10:28.054Z,95270.75
2022-08-05T22:12:57.714Z,95264.13
2022-08-05T22:16:01.874Z,95274.59
2022-08-05T22:18:19.651Z,95262.84
2022-08-05T22:20:52.544Z,95268.25
2022-08-05T22:24:02.056Z,95265.09
2022-08-05T22:26:43.157Z,95256.06
2022-08-05T22:29:18.970Z,95247.22
2022-08-05T22:31:55.145Z,95246.56
2022-08-05T22:34:28.676Z,95248.63
2022-08-05T22:36:58.285Z,95245.13
2022-08-05T22:39:28.589Z,95248.31
2022-08-05T22:42:09.647Z,95255.44
2022-08-05T22:44:42.510Z,95247.56
2022-08-05T22:47:29.365Z,95245.19
2022-08-05T22:50:19.514Z,95239.97
2022-08-05T22:52:46.345Z,95236.47
2022-08-05T22:55:19.197Z,95234.72
2022-08-05T22:57:47.278Z,95226.63
2022-08-05T23:00:20.821Z,95220.94
2022-08-05T23:02:49.096Z,95220.94
2022-08-05T23:05:16.901Z,95218.53
2022-08-05T23:07:48.838Z,95215.66
2022-08-05T23:10:19.843Z,95232.31
2022-08-05T23:12:47.170Z,95215.06
2022-08-05T23:15:21.772Z,95217.41
2022-08-05T23:18:00.551Z,95231.03
2022-08-05T23:20:29.812Z,95228.97
2022-08-05T23:22:56.651Z,95229.47
2022-08-05T23:25:52.255Z,95235.63
2022-08-05T23:28:13.092Z,95243.72
2022-08-05T23:30:53.273Z,95237.22
2022-08-05T23:34:02.721Z,95235.16
2022-08-05T23:36:13.549Z,95242.13
2022-08-05T23:38:41.098Z,95241.81
2022-08-05T23:41:11.450Z,95249.25
2022-08-05T23:44:04.737Z,95242.47
2022-08-05T23:46:26.499Z,95238.34
2022-08-05T23:49:00.895Z,95238.00
2022-08-05T23:51:53.743Z,95248.47
2022-08-05T23:54:25.949Z,95245.31
2022-08-05T23:56:54.316Z,95254.16
2022-08-05T23:59:21.903Z,95258.13
